sensor_id;sensor_type;location;lat;lon;timestamp;P1;durP1;ratioP1;P2;durP2;ratioP2
40993;SDS011;26722;43.212;27.932;2023-03-14T00:00:32;17.52;;;7.50;;
40993;SDS011;26722;43.212;27.932;2023-03-14T00:02:57;20.80;;;7.53;;
40993;SDS011;26722;43.212;27.932;2023-03-14T00:05:23;23.95;;;7.68;;
40993;SDS011;26722;43.212;27.932;2023-03-14T00:07:48;20.15;;;7.47;;
40993;SDS011;26722;43.212;27.932;2023-03-14T00:10:14;16.98;;;7.07;;
40993;SDS011;26722;43.212;27.932;2023-03-14T00:12:40;18.90;;;7.07;;
40993;SDS011;26722;43.212;27.932;2023-03-14T00:15:06;19.05;;;7.40;;
40993;SDS011;26722;43.212;27.932;2023-03-14T00:17:33;14.48;;;6.97;;
40993;SDS011;26722;43.212;27.932;2023-03-14T00:19:59;14.90;;;6.85;;
40993;SDS011;26722;43.212;27.932;2023-03-14T00:22:29;19.20;;;7.60;;
40993;SDS011;26722;43.212;27.932;2023-03-14T00:24:56;15.57;;;6.20;;
40993;SDS011;26722;43.212;27.932;2023-03-14T00:27:21;27.77;;;7.07;;
40993;SDS011;26722;43.212;27.932;2023-03-14T00:29:46;13.73;;;5.13;;
40993;SDS011;26722;43.212;27.932;2023-03-14T00:32:12;14.10;;;5.93;;
40993;SDS011;26722;43.212;27.932;2023-03-14T00:34:37;12.75;;;6.20;;
40993;SDS011;26722;43.212;27.932;2023-03-14T00:37:03;12.23;;;5.40;;
40993;SDS011;26722;43.212;27.932;2023-03-14T00:39:28;14.50;;;5.88;;
40993;SDS011;26722;43.212;27.932;2023-03-14T00:41:54;14.13;;;5.88;;
40993;SDS011;26722;43.212;27.932;2023-03-14T00:44:19;9.88;;;5.25;;
40993;SDS011;26722;43.212;27.932;2023-03-14T00:46:45;15.55;;;5.75;;
40993;SDS011;26722;43.212;27.932;2023-03-14T00:49:10;11.40;;;5.25;;
40993;SDS011;26722;43.212;27.932;2023-03-14T00:51:35;11.52;;;5.65;;
40993;SDS011;26722;43.212;27.932;2023-03-14T00:54:01;12.43;;;5.10;;
40993;SDS011;26722;43.212;27.932;2023-03-14T00:56:26;14.77;;;5.10;;
40993;SDS011;26722;43.212;27.932;2023-03-14T00:58:55;6.95;;;4.20;;
40993;SDS011;26722;43.212;27.932;2023-03-14T01:01:21;10.85;;;4.95;;
40993;SDS011;26722;43.212;27.932;2023-03-14T01:03:46;7.78;;;4.38;;
40993;SDS011;26722;43.212;27.932;2023-03-14T01:06:20;8.45;;;4.82;;
40993;SDS011;26722;43.212;27.932;2023-03-14T01:08:47;9.43;;;4.70;;
40993;SDS011;26722;43.212;27.932;2023-03-14T01:11:20;9.63;;;4.68;;
40993;SDS011;26722;43.212;27.932;2023-03-14T01:13:48;12.43;;;4.78;;
40993;SDS011;26722;43.212;27.932;2023-03-14T01:16:14;10.07;;;5.15;;
40993;SDS011;26722;43.212;27.932;2023-03-14T01:18:41;10.25;;;4.50;;
40993;SDS011;26722;43.212;27.932;2023-03-14T01:21:22;10.77;;;4.75;;
40993;SDS011;26722;43.212;27.932;2023-03-14T01:23:50;11.63;;;4.72;;
40993;SDS011;26722;43.212;27.932;2023-03-14T01:26:18;9.32;;;4.13;;
40993;SDS011;26722;43.212;27.932;2023-03-14T01:28:45;9.93;;;4.65;;
40993;SDS011;26722;43.212;27.932;2023-03-14T01:31:11;7.38;;;4.25;;
40993;SDS011;26722;43.212;27.932;2023-03-14T01:33:37;11.25;;;4.30;;
40993;SDS011;26722;43.212;27.932;2023-03-14T01:36:03;9.63;;;4.68;;
40993;SDS011;26722;43.212;27.932;2023-03-14T01:38:31;10.18;;;4.30;;
40993;SDS011;26722;43.212;27.932;2023-03-14T01:40:58;8.68;;;3.88;;
40993;SDS011;26722;43.212;27.932;2023-03-14T01:43:23;14.10;;;3.97;;
40993;SDS011;26722;43.212;27.932;2023-03-14T01:48:38;9.90;;;3.80;;
40993;SDS011;26722;43.212;27.932;2023-03-14T01:51:08;15.95;;;4.32;;
40993;SDS011;26722;43.212;27.932;2023-03-14T01:53:37;10.23;;;4.45;;
40993;SDS011;26722;43.212;27.932;2023-03-14T01:56:06;8.65;;;3.83;;
40993;SDS011;26722;43.212;27.932;2023-03-14T01:58:32;10.57;;;4.03;;
40993;SDS011;26722;43.212;27.932;2023-03-14T02:00:59;11.90;;;4.25;;
40993;SDS011;26722;43.212;27.932;2023-03-14T02:03:28;11.32;;;4.10;;
40993;SDS011;26722;43.212;27.932;2023-03-14T02:05:56;6.43;;;3.65;;
40993;SDS011;26722;43.212;27.932;2023-03-14T02:08:25;9.30;;;3.45;;
40993;SDS011;26722;43.212;27.932;2023-03-14T02:10:52;8.70;;;3.95;;
40993;SDS011;26722;43.212;27.932;2023-03-14T02:13:18;7.97;;;3.38;;
40993;SDS011;26722;43.212;27.932;2023-03-14T02:15:46;5.97;;;3.70;;
40993;SDS011;26722;43.212;27.932;2023-03-14T02:18:12;8.57;;;3.70;;
40993;SDS011;26722;43.212;27.932;2023-03-14T02:23:11;7.75;;;3.33;;
40993;SDS011;26722;43.212;27.932;2023-03-14T02:25:42;10.02;;;3.35;;
40993;SDS011;26722;43.212;27.932;2023-03-14T02:28:13;5.57;;;3.67;;
40993;SDS011;26722;43.212;27.932;2023-03-14T02:30:39;7.72;;;3.60;;
40993;SDS011;26722;43.212;27.932;2023-03-14T02:35:37;10.05;;;3.33;;
40993;SDS011;26722;43.212;27.932;2023-03-14T02:38:24;10.13;;;3.67;;
40993;SDS011;26722;43.212;27.932;2023-03-14T02:40:52;7.50;;;3.47;;
40993;SDS011;26722;43.212;27.932;2023-03-14T02:43:18;8.82;;;3.75;;
40993;SDS011;26722;43.212;27.932;2023-03-14T02:45:44;9.88;;;4.05;;
40993;SDS011;26722;43.212;27.932;2023-03-14T02:48:14;11.93;;;4.38;;
40993;SDS011;26722;43.212;27.932;2023-03-14T02:50:40;11.18;;;4.30;;
40993;SDS011;26722;43.212;27.932;2023-03-14T02:53:06;12.13;;;4.13;;
40993;SDS011;26722;43.212;27.932;2023-03-14T02:55:32;10.70;;;4.28;;
40993;SDS011;26722;43.212;27.932;2023-03-14T02:57:58;10.63;;;4.38;;
40993;SDS011;26722;43.212;27.932;2023-03-14T03:00:23;12.57;;;4.40;;
40993;SDS011;26722;43.212;27.932;2023-03-14T03:02:49;8.20;;;3.88;;
40993;SDS011;26722;43.212;27.932;2023-03-14T03:05:14;9.95;;;3.97;;
40993;SDS011;26722;43.212;27.932;2023-03-14T03:07:39;10.57;;;4.88;;
40993;SDS011;26722;43.212;27.932;2023-03-14T03:10:05;11.73;;;5.00;;
40993;SDS011;26722;43.212;27.932;2023-03-14T03:12:31;9.55;;;5.55;;
40993;SDS011;26722;43.212;27.932;2023-03-14T03:14:56;12.98;;;5.25;;
40993;SDS011;26722;43.212;27.932;2023-03-14T03:17:22;11.43;;;5.35;;
40993;SDS011;26722;43.212;27.932;2023-03-14T03:19:47;11.50;;;5.30;;
40993;SDS011;26722;43.212;27.932;2023-03-14T03:22:13;19.13;;;5.82;;
40993;SDS011;26722;43.212;27.932;2023-03-14T03:24:38;13.27;;;5.50;;
40993;SDS011;26722;43.212;27.932;2023-03-14T03:27:04;9.52;;;5.50;;
40993;SDS011;26722;43.212;27.932;2023-03-14T03:29:29;12.98;;;5.50;;
40993;SDS011;26722;43.212;27.932;2023-03-14T03:31:55;13.75;;;4.75;;
40993;SDS011;26722;43.212;27.932;2023-03-14T03:34:20;10.85;;;5.00;;
40993;SDS011;26722;43.212;27.932;2023-03-14T03:36:45;8.73;;;4.40;;
40993;SDS011;26722;43.212;27.932;2023-03-14T03:39:11;11.52;;;4.53;;
40993;SDS011;26722;43.212;27.932;2023-03-14T03:41:36;8.77;;;4.45;;
40993;SDS011;26722;43.212;27.932;2023-03-14T03:44:02;9.48;;;5.10;;
40993;SDS011;26722;43.212;27.932;2023-03-14T03:46:27;12.43;;;4.85;;
40993;SDS011;26722;43.212;27.932;2023-03-14T03:48:56;7.85;;;4.68;;
40993;SDS011;26722;43.212;27.932;2023-03-14T03:51:24;10.25;;;4.75;;
40993;SDS011;26722;43.212;27.932;2023-03-14T03:53:50;15.32;;;4.75;;
40993;SDS011;26722;43.212;27.932;2023-03-14T03:56:15;12.50;;;4.65;;
40993;SDS011;26722;43.212;27.932;2023-03-14T03:58:41;9.63;;;4.45;;
40993;SDS011;26722;43.212;27.932;2023-03-14T04:01:07;8.45;;;4.18;;
40993;SDS011;26722;43.212;27.932;2023-03-14T04:03:33;20.55;;;5.15;;
40993;SDS011;26722;43.212;27.932;2023-03-14T04:06:09;10.15;;;4.43;;
40993;SDS011;26722;43.212;27.932;2023-03-14T04:08:36;8.98;;;4.50;;
40993;SDS011;26722;43.212;27.932;2023-03-14T04:11:02;12.20;;;4.80;;
40993;SDS011;26722;43.212;27.932;2023-03-14T04:13:28;7.95;;;4.45;;
40993;SDS011;26722;43.212;27.932;2023-03-14T04:15:53;9.02;;;4.53;;
40993;SDS011;26722;43.212;27.932;2023-03-14T04:18:20;10.88;;;4.57;;
40993;SDS011;26722;43.212;27.932;2023-03-14T04:20:53;12.65;;;3.97;;
40993;SDS011;26722;43.212;27.932;2023-03-14T04:23:19;13.93;;;5.07;;
40993;SDS011;26722;43.212;27.932;2023-03-14T04:25:45;12.15;;;4.63;;
40993;SDS011;26722;43.212;27.932;2023-03-14T04:28:11;11.55;;;4.28;;
40993;SDS011;26722;43.212;27.932;2023-03-14T04:30:36;9.18;;;4.63;;
40993;SDS011;26722;43.212;27.932;2023-03-14T04:33:01;13.52;;;5.25;;
40993;SDS011;26722;43.212;27.932;2023-03-14T04:35:27;14.90;;;5.57;;
40993;SDS011;26722;43.212;27.932;2023-03-14T04:37:56;9.25;;;4.80;;
40993;SDS011;26722;43.212;27.932;2023-03-14T04:40:21;15.70;;;5.50;;
40993;SDS011;26722;43.212;27.932;2023-03-14T04:42:46;15.45;;;5.50;;
40993;SDS011;26722;43.212;27.932;2023-03-14T04:45:12;22.55;;;7.22;;
40993;SDS011;26722;43.212;27.932;2023-03-14T04:47:37;17.45;;;7.75;;
40993;SDS011;26722;43.212;27.932;2023-03-14T04:50:03;19.58;;;6.57;;
40993;SDS011;26722;43.212;27.932;2023-03-14T04:52:29;20.70;;;8.35;;
40993;SDS011;26722;43.212;27.932;2023-03-14T04:54:54;17.75;;;6.15;;
40993;SDS011;26722;43.212;27.932;2023-03-14T04:57:20;19.90;;;7.32;;
40993;SDS011;26722;43.212;27.932;2023-03-14T04:59:45;14.02;;;6.53;;
40993;SDS011;26722;43.212;27.932;2023-03-14T05:02:11;21.70;;;7.93;;
40993;SDS011;26722;43.212;27.932;2023-03-14T05:04:36;16.42;;;6.40;;
40993;SDS011;26722;43.212;27.932;2023-03-14T05:07:02;22.52;;;6.18;;
40993;SDS011;26722;43.212;27.932;2023-03-14T05:09:27;15.00;;;6.32;;
40993;SDS011;26722;43.212;27.932;2023-03-14T05:11:53;20.05;;;7.60;;
40993;SDS011;26722;43.212;27.932;2023-03-14T05:14:18;20.95;;;5.97;;
40993;SDS011;26722;43.212;27.932;2023-03-14T05:16:44;15.48;;;6.53;;
40993;SDS011;26722;43.212;27.932;2023-03-14T05:19:10;16.75;;;7.93;;
40993;SDS011;26722;43.212;27.932;2023-03-14T05:21:36;16.17;;;6.80;;
40993;SDS011;26722;43.212;27.932;2023-03-14T05:24:01;20.70;;;8.00;;
40993;SDS011;26722;43.212;27.932;2023-03-14T05:26:27;20.70;;;7.18;;
40993;SDS011;26722;43.212;27.932;2023-03-14T05:28:52;13.82;;;7.13;;
40993;SDS011;26722;43.212;27.932;2023-03-14T05:31:18;13.23;;;6.32;;
40993;SDS011;26722;43.212;27.932;2023-03-14T05:33:43;20.58;;;7.32;;
40993;SDS011;26722;43.212;27.932;2023-03-14T05:36:09;14.90;;;6.28;;
40993;SDS011;26722;43.212;27.932;2023-03-14T05:38:34;15.10;;;6.80;;
40993;SDS011;26722;43.212;27.932;2023-03-14T05:41:00;14.10;;;5.60;;
40993;SDS011;26722;43.212;27.932;2023-03-14T05:43:25;12.63;;;5.65;;
40993;SDS011;26722;43.212;27.932;2023-03-14T05:45:51;15.77;;;5.82;;
40993;SDS011;26722;43.212;27.932;2023-03-14T05:48:16;16.52;;;6.00;;
40993;SDS011;26722;43.212;27.932;2023-03-14T05:50:42;14.07;;;5.93;;
40993;SDS011;26722;43.212;27.932;2023-03-14T05:53:07;22.23;;;6.20;;
40993;SDS011;26722;43.212;27.932;2023-03-14T05:55:33;13.65;;;5.18;;
40993;SDS011;26722;43.212;27.932;2023-03-14T05:57:58;14.45;;;5.25;;
40993;SDS011;26722;43.212;27.932;2023-03-14T06:00:24;23.92;;;5.13;;
40993;SDS011;26722;43.212;27.932;2023-03-14T06:02:49;11.05;;;4.15;;
40993;SDS011;26722;43.212;27.932;2023-03-14T06:05:15;10.40;;;4.45;;
40993;SDS011;26722;43.212;27.932;2023-03-14T06:07:40;9.70;;;3.45;;
40993;SDS011;26722;43.212;27.932;2023-03-14T06:10:06;11.63;;;4.28;;
40993;SDS011;26722;43.212;27.932;2023-03-14T06:12:32;14.90;;;4.85;;
40993;SDS011;26722;43.212;27.932;2023-03-14T06:14:57;15.30;;;4.90;;
40993;SDS011;26722;43.212;27.932;2023-03-14T06:17:23;10.18;;;3.97;;
40993;SDS011;26722;43.212;27.932;2023-03-14T06:19:48;17.88;;;4.82;;
40993;SDS011;26722;43.212;27.932;2023-03-14T06:22:14;8.40;;;4.07;;
40993;SDS011;26722;43.212;27.932;2023-03-14T06:24:39;10.40;;;4.15;;
40993;SDS011;26722;43.212;27.932;2023-03-14T06:27:05;15.70;;;5.45;;
40993;SDS011;26722;43.212;27.932;2023-03-14T06:29:30;9.98;;;5.10;;
40993;SDS011;26722;43.212;27.932;2023-03-14T06:31:56;12.10;;;5.30;;
40993;SDS011;26722;43.212;27.932;2023-03-14T06:34:21;8.70;;;4.63;;
40993;SDS011;26722;43.212;27.932;2023-03-14T06:36:47;17.60;;;4.00;;
40993;SDS011;26722;43.212;27.932;2023-03-14T06:39:12;11.05;;;3.05;;
40993;SDS011;26722;43.212;27.932;2023-03-14T06:41:38;8.77;;;3.75;;
40993;SDS011;26722;43.212;27.932;2023-03-14T06:44:03;6.28;;;3.00;;
40993;SDS011;26722;43.212;27.932;2023-03-14T06:46:29;6.82;;;2.85;;
40993;SDS011;26722;43.212;27.932;2023-03-14T06:48:55;5.75;;;2.65;;
40993;SDS011;26722;43.212;27.932;2023-03-14T06:51:21;7.63;;;2.90;;
40993;SDS011;26722;43.212;27.932;2023-03-14T06:53:46;4.75;;;2.60;;
40993;SDS011;26722;43.212;27.932;2023-03-14T06:56:11;9.57;;;3.10;;
40993;SDS011;26722;43.212;27.932;2023-03-14T06:58:37;7.10;;;2.30;;
40993;SDS011;26722;43.212;27.932;2023-03-14T07:01:02;4.38;;;2.10;;
40993;SDS011;26722;43.212;27.932;2023-03-14T07:03:28;7.80;;;3.47;;
40993;SDS011;26722;43.212;27.932;2023-03-14T07:05:54;4.78;;;2.40;;
40993;SDS011;26722;43.212;27.932;2023-03-14T07:08:20;8.77;;;2.47;;
40993;SDS011;26722;43.212;27.932;2023-03-14T07:10:45;10.90;;;2.13;;
40993;SDS011;26722;43.212;27.932;2023-03-14T07:13:11;5.68;;;2.00;;
40993;SDS011;26722;43.212;27.932;2023-03-14T07:15:36;6.50;;;2.22;;
40993;SDS011;26722;43.212;27.932;2023-03-14T07:18:02;5.55;;;2.30;;
40993;SDS011;26722;43.212;27.932;2023-03-14T07:20:27;6.15;;;1.80;;
40993;SDS011;26722;43.212;27.932;2023-03-14T07:22:54;2.40;;;1.73;;
40993;SDS011;26722;43.212;27.932;2023-03-14T07:25:19;8.07;;;2.70;;
40993;SDS011;26722;43.212;27.932;2023-03-14T07:27:45;7.95;;;1.90;;
40993;SDS011;26722;43.212;27.932;2023-03-14T07:30:11;7.45;;;2.50;;
40993;SDS011;26722;43.212;27.932;2023-03-14T07:32:37;9.52;;;2.63;;
40993;SDS011;26722;43.212;27.932;2023-03-14T07:35:03;4.95;;;2.30;;
40993;SDS011;26722;43.212;27.932;2023-03-14T07:37:29;9.30;;;3.40;;
40993;SDS011;26722;43.212;27.932;2023-03-14T07:39:55;6.65;;;2.40;;
40993;SDS011;26722;43.212;27.932;2023-03-14T07:42:20;10.88;;;3.28;;
40993;SDS011;26722;43.212;27.932;2023-03-14T07:44:46;10.27;;;4.05;;
40993;SDS011;26722;43.212;27.932;2023-03-14T07:47:11;7.30;;;2.80;;
40993;SDS011;26722;43.212;27.932;2023-03-14T07:49:37;13.60;;;2.80;;
40993;SDS011;26722;43.212;27.932;2023-03-14T07:52:02;7.35;;;3.00;;
40993;SDS011;26722;43.212;27.932;2023-03-14T07:54:28;5.82;;;2.78;;
40993;SDS011;26722;43.212;27.932;2023-03-14T07:56:53;5.35;;;2.75;;
40993;SDS011;26722;43.212;27.932;2023-03-14T07:59:19;8.95;;;2.33;;
40993;SDS011;26722;43.212;27.932;2023-03-14T08:01:44;6.70;;;2.22;;
40993;SDS011;26722;43.212;27.932;2023-03-14T08:04:10;8.20;;;2.08;;
40993;SDS011;26722;43.212;27.932;2023-03-14T08:06:36;4.53;;;2.00;;
40993;SDS011;26722;43.212;27.932;2023-03-14T08:09:02;6.70;;;2.10;;
40993;SDS011;26722;43.212;27.932;2023-03-14T08:11:28;4.65;;;1.83;;
40993;SDS011;26722;43.212;27.932;2023-03-14T08:13:54;4.72;;;1.88;;
40993;SDS011;26722;43.212;27.932;2023-03-14T08:16:19;7.63;;;1.80;;
40993;SDS011;26722;43.212;27.932;2023-03-14T08:18:45;9.48;;;2.15;;
40993;SDS011;26722;43.212;27.932;2023-03-14T08:21:11;7.78;;;2.05;;
40993;SDS011;26722;43.212;27.932;2023-03-14T08:23:36;6.93;;;1.85;;
40993;SDS011;26722;43.212;27.932;2023-03-14T08:26:02;4.80;;;1.70;;
40993;SDS011;26722;43.212;27.932;2023-03-14T08:28:27;10.27;;;2.05;;
40993;SDS011;26722;43.212;27.932;2023-03-14T08:30:58;7.22;;;2.50;;
40993;SDS011;26722;43.212;27.932;2023-03-14T08:33:27;8.20;;;2.33;;
40993;SDS011;26722;43.212;27.932;2023-03-14T08:35:54;6.75;;;2.30;;
40993;SDS011;26722;43.212;27.932;2023-03-14T08:38:21;8.70;;;2.95;;
40993;SDS011;26722;43.212;27.932;2023-03-14T08:40:46;13.02;;;2.75;;
40993;SDS011;26722;43.212;27.932;2023-03-14T08:43:12;5.60;;;2.40;;
40993;SDS011;26722;43.212;27.932;2023-03-14T08:45:37;7.93;;;2.92;;
40993;SDS011;26722;43.212;27.932;2023-03-14T08:48:03;7.78;;;2.88;;
40993;SDS011;26722;43.212;27.932;2023-03-14T08:50:29;12.98;;;2.80;;
40993;SDS011;26722;43.212;27.932;2023-03-14T08:52:54;9.23;;;2.72;;
40993;SDS011;26722;43.212;27.932;2023-03-14T08:55:20;11.10;;;3.28;;
40993;SDS011;26722;43.212;27.932;2023-03-14T08:57:45;5.47;;;2.25;;
40993;SDS011;26722;43.212;27.932;2023-03-14T09:00:11;7.70;;;2.25;;
40993;SDS011;26722;43.212;27.932;2023-03-14T09:02:40;5.35;;;2.10;;
40993;SDS011;26722;43.212;27.932;2023-03-14T09:05:08;8.60;;;2.42;;
40993;SDS011;26722;43.212;27.932;2023-03-14T09:07:35;7.13;;;2.30;;
40993;SDS011;26722;43.212;27.932;2023-03-14T09:10:00;8.98;;;2.60;;
40993;SDS011;26722;43.212;27.932;2023-03-14T09:12:26;8.70;;;2.63;;
40993;SDS011;26722;43.212;27.932;2023-03-14T09:14:51;8.45;;;2.50;;
40993;SDS011;26722;43.212;27.932;2023-03-14T09:17:17;7.22;;;2.00;;
40993;SDS011;26722;43.212;27.932;2023-03-14T09:19:42;7.45;;;2.70;;
40993;SDS011;26722;43.212;27.932;2023-03-14T09:22:08;5.38;;;2.00;;
40993;SDS011;26722;43.212;27.932;2023-03-14T09:24:33;4.70;;;1.77;;
40993;SDS011;26722;43.212;27.932;2023-03-14T09:26:59;6.90;;;1.83;;
40993;SDS011;26722;43.212;27.932;2023-03-14T09:29:24;11.82;;;2.88;;
40993;SDS011;26722;43.212;27.932;2023-03-14T09:31:50;4.55;;;2.15;;
40993;SDS011;26722;43.212;27.932;2023-03-14T09:34:15;9.82;;;2.42;;
40993;SDS011;26722;43.212;27.932;2023-03-14T09:36:41;6.35;;;1.80;;
40993;SDS011;26722;43.212;27.932;2023-03-14T09:39:09;9.93;;;3.08;;
40993;SDS011;26722;43.212;27.932;2023-03-14T09:41:36;6.65;;;2.28;;
40993;SDS011;26722;43.212;27.932;2023-03-14T09:44:10;5.38;;;2.25;;
40993;SDS011;26722;43.212;27.932;2023-03-14T09:46:37;6.85;;;1.80;;
40993;SDS011;26722;43.212;27.932;2023-03-14T09:49:09;7.40;;;2.50;;
40993;SDS011;26722;43.212;27.932;2023-03-14T09:51:37;5.57;;;1.60;;
40993;SDS011;26722;43.212;27.932;2023-03-14T09:54:02;5.40;;;1.98;;
40993;SDS011;26722;43.212;27.932;2023-03-14T09:56:31;13.07;;;3.40;;
40993;SDS011;26722;43.212;27.932;2023-03-14T09:58:59;8.10;;;2.35;;
40993;SDS011;26722;43.212;27.932;2023-03-14T10:01:29;6.40;;;2.03;;
40993;SDS011;26722;43.212;27.932;2023-03-14T10:03:58;7.47;;;2.30;;
40993;SDS011;26722;43.212;27.932;2023-03-14T10:06:28;3.08;;;1.65;;
40993;SDS011;26722;43.212;27.932;2023-03-14T10:08:55;6.82;;;2.08;;
40993;SDS011;26722;43.212;27.932;2023-03-14T10:11:21;6.30;;;2.55;;
40993;SDS011;26722;43.212;27.932;2023-03-14T10:13:49;5.22;;;2.00;;
40993;SDS011;26722;43.212;27.932;2023-03-14T10:16:15;5.20;;;2.10;;
40993;SDS011;26722;43.212;27.932;2023-03-14T10:18:43;15.48;;;2.08;;
40993;SDS011;26722;43.212;27.932;2023-03-14T10:21:17;7.57;;;2.17;;
40993;SDS011;26722;43.212;27.932;2023-03-14T10:23:49;5.93;;;1.80;;
40993;SDS011;26722;43.212;27.932;2023-03-14T10:26:16;3.95;;;1.65;;
40993;SDS011;26722;43.212;27.932;2023-03-14T10:28:51;8.60;;;2.97;;
40993;SDS011;26722;43.212;27.932;2023-03-14T10:31:18;6.68;;;1.42;;
40993;SDS011;26722;43.212;27.932;2023-03-14T10:33:57;5.97;;;3.00;;
40993;SDS011;26722;43.212;27.932;2023-03-14T10:36:28;8.75;;;2.13;;
40993;SDS011;26722;43.212;27.932;2023-03-14T10:39:15;6.65;;;2.10;;
40993;SDS011;26722;43.212;27.932;2023-03-14T10:41:52;6.28;;;1.77;;
40993;SDS011;26722;43.212;27.932;2023-03-14T10:44:23;8.02;;;2.05;;
40993;SDS011;26722;43.212;27.932;2023-03-14T10:46:58;10.77;;;1.85;;
40993;SDS011;26722;43.212;27.932;2023-03-14T10:52:40;6.43;;;1.80;;
40993;SDS011;26722;43.212;27.932;2023-03-14T10:54:54;8.60;;;1.80;;
40993;SDS011;26722;43.212;27.932;2023-03-14T10:57:23;4.82;;;1.92;;
40993;SDS011;26722;43.212;27.932;2023-03-14T10:59:50;4.55;;;1.60;;
40993;SDS011;26722;43.212;27.932;2023-03-14T11:08:11;4.60;;;1.60;;
40993;SDS011;26722;43.212;27.932;2023-03-14T11:11:06;6.95;;;2.28;;
40993;SDS011;26722;43.212;27.932;2023-03-14T11:13:39;8.45;;;2.10;;
40993;SDS011;26722;43.212;27.932;2023-03-14T11:16:14;3.78;;;1.70;;
40993;SDS011;26722;43.212;27.932;2023-03-14T11:26:53;4.75;;;1.98;;
40993;SDS011;26722;43.212;27.932;2023-03-14T11:29:22;17.52;;;1.65;;
40993;SDS011;26722;43.212;27.932;2023-03-14T11:31:50;6.35;;;1.90;;
40993;SDS011;26722;43.212;27.932;2023-03-14T11:34:40;4.90;;;1.55;;
40993;SDS011;26722;43.212;27.932;2023-03-14T11:37:22;8.20;;;1.92;;
40993;SDS011;26722;43.212;27.932;2023-03-14T11:40:01;4.72;;;1.60;;
40993;SDS011;26722;43.212;27.932;2023-03-14T11:45:34;4.75;;;1.30;;
40993;SDS011;26722;43.212;27.932;2023-03-14T11:50:36;9.18;;;1.58;;
40993;SDS011;26722;43.212;27.932;2023-03-14T11:53:14;3.17;;;1.48;;
40993;SDS011;26722;43.212;27.932;2023-03-14T11:55:44;3.60;;;1.90;;
40993;SDS011;26722;43.212;27.932;2023-03-14T11:58:23;8.13;;;1.95;;
40993;SDS011;26722;43.212;27.932;2023-03-14T12:00:53;13.25;;;2.10;;
40993;SDS011;26722;43.212;27.932;2023-03-14T12:11:08;8.43;;;1.75;;
40993;SDS011;26722;43.212;27.932;2023-03-14T12:13:38;6.97;;;1.90;;
40993;SDS011;26722;43.212;27.932;2023-03-14T12:16:47;10.63;;;1.98;;
40993;SDS011;26722;43.212;27.932;2023-03-14T12:19:04;8.45;;;1.58;;
40993;SDS011;26722;43.212;27.932;2023-03-14T12:21:44;6.68;;;2.28;;
40993;SDS011;26722;43.212;27.932;2023-03-14T12:24:33;5.97;;;1.63;;
40993;SDS011;26722;43.212;27.932;2023-03-14T12:27:02;6.22;;;1.63;;
40993;SDS011;26722;43.212;27.932;2023-03-14T12:29:30;5.07;;;1.50;;
40993;SDS011;26722;43.212;27.932;2023-03-14T12:32:12;4.13;;;1.63;;
40993;SDS011;26722;43.212;27.932;2023-03-14T12:34:48;7.93;;;2.05;;
40993;SDS011;26722;43.212;27.932;2023-03-14T12:37:19;5.45;;;1.70;;
40993;SDS011;26722;43.212;27.932;2023-03-14T12:40:13;5.13;;;1.70;;
40993;SDS011;26722;43.212;27.932;2023-03-14T12:45:30;10.15;;;1.90;;
40993;SDS011;26722;43.212;27.932;2023-03-14T12:48:10;3.97;;;2.00;;
40993;SDS011;26722;43.212;27.932;2023-03-14T12:50:40;4.15;;;1.40;;
40993;SDS011;26722;43.212;27.932;2023-03-14T13:01:54;3.85;;;1.80;;
40993;SDS011;26722;43.212;27.932;2023-03-14T13:04:29;5.05;;;2.50;;
40993;SDS011;26722;43.212;27.932;2023-03-14T13:06:59;5.82;;;1.98;;
40993;SDS011;26722;43.212;27.932;2023-03-14T13:12:08;4.07;;;1.70;;
40993;SDS011;26722;43.212;27.932;2023-03-14T13:14:35;5.63;;;1.50;;
40993;SDS011;26722;43.212;27.932;2023-03-14T13:17:14;4.93;;;1.80;;
40993;SDS011;26722;43.212;27.932;2023-03-14T13:19:44;5.38;;;1.60;;
40993;SDS011;26722;43.212;27.932;2023-03-14T13:22:21;4.25;;;1.30;;
40993;SDS011;26722;43.212;27.932;2023-03-14T13:24:57;6.85;;;1.73;;
40993;SDS011;26722;43.212;27.932;2023-03-14T13:27:32;6.93;;;1.70;;
40993;SDS011;26722;43.212;27.932;2023-03-14T13:29:59;3.85;;;1.42;;
40993;SDS011;26722;43.212;27.932;2023-03-14T13:32:50;9.88;;;2.33;;
40993;SDS011;26722;43.212;27.932;2023-03-14T13:35:18;3.38;;;1.67;;
40993;SDS011;26722;43.212;27.932;2023-03-14T13:37:44;5.78;;;2.35;;
40993;SDS011;26722;43.212;27.932;2023-03-14T13:46:05;4.97;;;1.45;;
40993;SDS011;26722;43.212;27.932;2023-03-14T13:48:49;3.47;;;1.40;;
40993;SDS011;26722;43.212;27.932;2023-03-14T13:51:20;4.20;;;1.33;;
40993;SDS011;26722;43.212;27.932;2023-03-14T13:53:48;4.13;;;1.50;;
40993;SDS011;26722;43.212;27.932;2023-03-14T13:56:15;5.63;;;1.88;;
40993;SDS011;26722;43.212;27.932;2023-03-14T13:58:41;5.40;;;1.33;;
40993;SDS011;26722;43.212;27.932;2023-03-14T14:01:13;5.00;;;1.48;;
40993;SDS011;26722;43.212;27.932;2023-03-14T14:03:42;4.68;;;1.40;;
40993;SDS011;26722;43.212;27.932;2023-03-14T14:11:40;7.03;;;1.70;;
40993;SDS011;26722;43.212;27.932;2023-03-14T14:14:09;7.03;;;1.67;;
40993;SDS011;26722;43.212;27.932;2023-03-14T14:16:39;6.45;;;1.80;;
40993;SDS011;26722;43.212;27.932;2023-03-14T14:19:06;4.25;;;1.52;;
40993;SDS011;26722;43.212;27.932;2023-03-14T14:21:32;5.70;;;1.85;;
40993;SDS011;26722;43.212;27.932;2023-03-14T14:23:58;6.53;;;2.00;;
40993;SDS011;26722;43.212;27.932;2023-03-14T14:26:25;3.85;;;1.80;;
40993;SDS011;26722;43.212;27.932;2023-03-14T14:29:03;3.75;;;1.70;;
40993;SDS011;26722;43.212;27.932;2023-03-14T14:31:30;2.92;;;1.50;;
40993;SDS011;26722;43.212;27.932;2023-03-14T14:34:04;4.60;;;1.60;;
40993;SDS011;26722;43.212;27.932;2023-03-14T14:41:31;6.05;;;1.73;;
40993;SDS011;26722;43.212;27.932;2023-03-14T14:43:59;2.92;;;1.58;;
40993;SDS011;26722;43.212;27.932;2023-03-14T14:46:26;7.43;;;1.50;;
40993;SDS011;26722;43.212;27.932;2023-03-14T14:48:55;4.05;;;1.40;;
40993;SDS011;26722;43.212;27.932;2023-03-14T14:51:23;5.88;;;2.05;;
40993;SDS011;26722;43.212;27.932;2023-03-14T14:54:32;3.75;;;1.88;;
40993;SDS011;26722;43.212;27.932;2023-03-14T14:57:01;7.70;;;1.60;;
40993;SDS011;26722;43.212;27.932;2023-03-14T14:59:28;8.93;;;2.17;;
40993;SDS011;26722;43.212;27.932;2023-03-14T15:02:01;6.97;;;1.85;;
40993;SDS011;26722;43.212;27.932;2023-03-14T15:04:29;6.63;;;1.45;;
40993;SDS011;26722;43.212;27.932;2023-03-14T15:06:56;4.78;;;1.60;;
40993;SDS011;26722;43.212;27.932;2023-03-14T15:09:22;10.30;;;1.45;;
40993;SDS011;26722;43.212;27.932;2023-03-14T15:11:47;4.32;;;1.70;;
40993;SDS011;26722;43.212;27.932;2023-03-14T15:14:13;4.88;;;1.85;;
40993;SDS011;26722;43.212;27.932;2023-03-14T15:16:39;2.75;;;1.50;;
40993;SDS011;26722;43.212;27.932;2023-03-14T15:19:21;3.17;;;1.30;;
40993;SDS011;26722;43.212;27.932;2023-03-14T15:21:50;5.35;;;1.48;;
40993;SDS011;26722;43.212;27.932;2023-03-14T15:24:16;9.50;;;1.92;;
40993;SDS011;26722;43.212;27.932;2023-03-14T15:26:42;7.10;;;1.98;;
40993;SDS011;26722;43.212;27.932;2023-03-14T15:29:09;6.25;;;1.90;;
40993;SDS011;26722;43.212;27.932;2023-03-14T15:31:37;12.68;;;1.90;;
40993;SDS011;26722;43.212;27.932;2023-03-14T15:34:02;10.48;;;1.60;;
40993;SDS011;26722;43.212;27.932;2023-03-14T15:36:30;8.60;;;1.40;;
40993;SDS011;26722;43.212;27.932;2023-03-14T15:38:57;6.47;;;1.77;;
40993;SDS011;26722;43.212;27.932;2023-03-14T15:41:24;6.97;;;1.75;;